sensor_id;sensor_type;location;lat;lon;timestamp;P1;durP1;ratioP1;P2;durP2;ratioP2
85510;SDS011;75921;51.616;11.880;2024-02-16T00:00:04;10.57;;;6.13;;
85510;SDS011;75921;51.616;11.880;2024-02-16T00:02:30;8.50;;;6.05;;
85510;SDS011;75921;51.616;11.880;2024-02-16T00:04:57;7.68;;;5.68;;
85510;SDS011;75921;51.616;11.880;2024-02-16T00:07:22;11.60;;;5.90;;
85510;SDS011;75921;51.616;11.880;2024-02-16T00:09:47;10.80;;;5.43;;
85510;SDS011;75921;51.616;11.880;2024-02-16T00:12:13;8.83;;;5.97;;
85510;SDS011;75921;51.616;11.880;2024-02-16T00:14:39;9.38;;;5.80;;
85510;SDS011;75921;51.616;11.880;2024-02-16T00:17:04;8.43;;;5.53;;
85510;SDS011;75921;51.616;11.880;2024-02-16T00:19:30;9.95;;;6.25;;
85510;SDS011;75921;51.616;11.880;2024-02-16T00:21:55;9.40;;;5.78;;
85510;SDS011;75921;51.616;11.880;2024-02-16T00:24:21;10.77;;;6.03;;
85510;SDS011;75921;51.616;11.880;2024-02-16T00:26:46;9.77;;;6.70;;
85510;SDS011;75921;51.616;11.880;2024-02-16T00:29:11;8.43;;;5.77;;
85510;SDS011;75921;51.616;11.880;2024-02-16T00:31:37;9.17;;;5.53;;
85510;SDS011;75921;51.616;11.880;2024-02-16T00:34:03;7.32;;;5.28;;
85510;SDS011;75921;51.616;11.880;2024-02-16T00:36:28;8.40;;;6.23;;
85510;SDS011;75921;51.616;11.880;2024-02-16T00:38:55;9.10;;;5.40;;
85510;SDS011;75921;51.616;11.880;2024-02-16T00:41:21;7.63;;;4.83;;
85510;SDS011;75921;51.616;11.880;2024-02-16T00:43:47;8.15;;;5.95;;
85510;SDS011;75921;51.616;11.880;2024-02-16T00:46:12;8.40;;;5.53;;
85510;SDS011;75921;51.616;11.880;2024-02-16T00:48:38;7.87;;;5.77;;
85510;SDS011;75921;51.616;11.880;2024-02-16T00:51:03;7.10;;;5.47;;
85510;SDS011;75921;51.616;11.880;2024-02-16T00:53:28;8.95;;;5.13;;
85510;SDS011;75921;51.616;11.880;2024-02-16T00:55:53;8.53;;;5.50;;
85510;SDS011;75921;51.616;11.880;2024-02-16T00:58:19;7.77;;;5.17;;
85510;SDS011;75921;51.616;11.880;2024-02-16T01:00:44;6.70;;;4.35;;
85510;SDS011;75921;51.616;11.880;2024-02-16T01:03:10;9.68;;;5.97;;
85510;SDS011;75921;51.616;11.880;2024-02-16T01:05:35;5.67;;;3.63;;
85510;SDS011;75921;51.616;11.880;2024-02-16T01:08:00;7.70;;;5.77;;
85510;SDS011;75921;51.616;11.880;2024-02-16T01:10:25;7.93;;;5.63;;
85510;SDS011;75921;51.616;11.880;2024-02-16T01:12:51;9.03;;;5.80;;
85510;SDS011;75921;51.616;11.880;2024-02-16T01:15:17;7.03;;;5.13;;
85510;SDS011;75921;51.616;11.880;2024-02-16T01:17:43;9.00;;;5.93;;
85510;SDS011;75921;51.616;11.880;2024-02-16T01:20:08;8.27;;;4.90;;
85510;SDS011;75921;51.616;11.880;2024-02-16T01:22:37;8.77;;;4.85;;
85510;SDS011;75921;51.616;11.880;2024-02-16T01:25:02;8.70;;;5.43;;
85510;SDS011;75921;51.616;11.880;2024-02-16T01:27:28;7.00;;;5.13;;
85510;SDS011;75921;51.616;11.880;2024-02-16T01:29:53;6.97;;;5.13;;
85510;SDS011;75921;51.616;11.880;2024-02-16T01:32:18;7.63;;;4.73;;
85510;SDS011;75921;51.616;11.880;2024-02-16T01:34:44;7.00;;;4.33;;
85510;SDS011;75921;51.616;11.880;2024-02-16T01:37:11;8.05;;;5.40;;
85510;SDS011;75921;51.616;11.880;2024-02-16T01:39:37;7.97;;;5.40;;
85510;SDS011;75921;51.616;11.880;2024-02-16T01:42:02;7.90;;;5.00;;
85510;SDS011;75921;51.616;11.880;2024-02-16T01:44:27;9.93;;;5.23;;
85510;SDS011;75921;51.616;11.880;2024-02-16T01:46:53;10.53;;;5.70;;
85510;SDS011;75921;51.616;11.880;2024-02-16T01:49:18;7.73;;;5.43;;
85510;SDS011;75921;51.616;11.880;2024-02-16T01:51:43;8.63;;;5.77;;
85510;SDS011;75921;51.616;11.880;2024-02-16T01:54:10;9.13;;;5.95;;
85510;SDS011;75921;51.616;11.880;2024-02-16T01:56:36;11.02;;;6.32;;
85510;SDS011;75921;51.616;11.880;2024-02-16T01:59:02;8.10;;;4.57;;
85510;SDS011;75921;51.616;11.880;2024-02-16T02:01:27;9.50;;;5.37;;
85510;SDS011;75921;51.616;11.880;2024-02-16T02:03:52;9.37;;;5.77;;
85510;SDS011;75921;51.616;11.880;2024-02-16T02:06:17;9.27;;;6.77;;
85510;SDS011;75921;51.616;11.880;2024-02-16T02:08:43;11.23;;;6.80;;
85510;SDS011;75921;51.616;11.880;2024-02-16T02:11:08;10.57;;;5.63;;
85510;SDS011;75921;51.616;11.880;2024-02-16T02:13:34;13.48;;;6.18;;
85510;SDS011;75921;51.616;11.880;2024-02-16T02:16:00;9.00;;;5.88;;
85510;SDS011;75921;51.616;11.880;2024-02-16T02:18:28;9.82;;;5.05;;
85510;SDS011;75921;51.616;11.880;2024-02-16T02:20:53;8.23;;;5.60;;
85510;SDS011;75921;51.616;11.880;2024-02-16T02:23:19;8.85;;;5.47;;
85510;SDS011;75921;51.616;11.880;2024-02-16T02:25:44;10.00;;;5.95;;
85510;SDS011;75921;51.616;11.880;2024-02-16T02:28:10;8.93;;;5.80;;
85510;SDS011;75921;51.616;11.880;2024-02-16T02:30:35;11.13;;;5.83;;
85510;SDS011;75921;51.616;11.880;2024-02-16T02:33:00;7.93;;;6.20;;
85510;SDS011;75921;51.616;11.880;2024-02-16T02:35:25;9.93;;;5.50;;
85510;SDS011;75921;51.616;11.880;2024-02-16T02:37:51;7.10;;;5.77;;
85510;SDS011;75921;51.616;11.880;2024-02-16T02:40:16;9.50;;;5.47;;
85510;SDS011;75921;51.616;11.880;2024-02-16T02:42:41;12.68;;;6.75;;
85510;SDS011;75921;51.616;11.880;2024-02-16T02:45:07;10.17;;;5.23;;
85510;SDS011;75921;51.616;11.880;2024-02-16T02:47:32;7.90;;;5.55;;
85510;SDS011;75921;51.616;11.880;2024-02-16T02:49:58;9.43;;;5.80;;
85510;SDS011;75921;51.616;11.880;2024-02-16T02:52:23;13.27;;;6.23;;
85510;SDS011;75921;51.616;11.880;2024-02-16T02:54:48;8.07;;;5.63;;
85510;SDS011;75921;51.616;11.880;2024-02-16T02:57:13;8.40;;;6.43;;
85510;SDS011;75921;51.616;11.880;2024-02-16T02:59:39;7.17;;;5.83;;
85510;SDS011;75921;51.616;11.880;2024-02-16T03:02:04;13.73;;;6.13;;
85510;SDS011;75921;51.616;11.880;2024-02-16T03:04:29;12.73;;;5.83;;
85510;SDS011;75921;51.616;11.880;2024-02-16T03:06:54;8.57;;;5.17;;
85510;SDS011;75921;51.616;11.880;2024-02-16T03:09:20;11.17;;;5.70;;
85510;SDS011;75921;51.616;11.880;2024-02-16T03:11:45;9.90;;;6.28;;
85510;SDS011;75921;51.616;11.880;2024-02-16T03:14:10;8.77;;;5.87;;
85510;SDS011;75921;51.616;11.880;2024-02-16T03:16:36;10.10;;;5.33;;
85510;SDS011;75921;51.616;11.880;2024-02-16T03:19:01;7.90;;;5.67;;
85510;SDS011;75921;51.616;11.880;2024-02-16T03:21:30;9.65;;;5.63;;
85510;SDS011;75921;51.616;11.880;2024-02-16T03:23:55;8.87;;;5.37;;
85510;SDS011;75921;51.616;11.880;2024-02-16T03:26:20;7.87;;;5.47;;
85510;SDS011;75921;51.616;11.880;2024-02-16T03:28:46;7.43;;;4.93;;
85510;SDS011;75921;51.616;11.880;2024-02-16T03:31:22;8.07;;;5.63;;
85510;SDS011;75921;51.616;11.880;2024-02-16T03:33:48;10.63;;;5.55;;
85510;SDS011;75921;51.616;11.880;2024-02-16T03:36:14;8.85;;;6.25;;
85510;SDS011;75921;51.616;11.880;2024-02-16T03:38:40;13.80;;;6.40;;
85510;SDS011;75921;51.616;11.880;2024-02-16T03:41:07;10.68;;;6.90;;
85510;SDS011;75921;51.616;11.880;2024-02-16T03:43:32;9.67;;;5.83;;
85510;SDS011;75921;51.616;11.880;2024-02-16T03:45:58;6.60;;;4.83;;
85510;SDS011;75921;51.616;11.880;2024-02-16T03:48:23;8.18;;;6.10;;
85510;SDS011;75921;51.616;11.880;2024-02-16T03:50:48;8.00;;;5.13;;
85510;SDS011;75921;51.616;11.880;2024-02-16T03:53:13;8.83;;;6.23;;
85510;SDS011;75921;51.616;11.880;2024-02-16T03:55:39;7.07;;;5.27;;
85510;SDS011;75921;51.616;11.880;2024-02-16T03:58:04;9.85;;;5.47;;
85510;SDS011;75921;51.616;11.880;2024-02-16T04:00:29;7.83;;;5.03;;
85510;SDS011;75921;51.616;11.880;2024-02-16T04:02:54;9.00;;;5.87;;
85510;SDS011;75921;51.616;11.880;2024-02-16T04:05:20;8.40;;;5.83;;
85510;SDS011;75921;51.616;11.880;2024-02-16T04:07:45;10.73;;;6.63;;
85510;SDS011;75921;51.616;11.880;2024-02-16T04:10:10;8.80;;;5.30;;
85510;SDS011;75921;51.616;11.880;2024-02-16T04:12:35;10.93;;;5.43;;
85510;SDS011;75921;51.616;11.880;2024-02-16T04:15:01;8.23;;;5.13;;
85510;SDS011;75921;51.616;11.880;2024-02-16T04:17:27;10.77;;;6.32;;
85510;SDS011;75921;51.616;11.880;2024-02-16T04:19:52;8.33;;;5.13;;
85510;SDS011;75921;51.616;11.880;2024-02-16T04:22:17;8.43;;;5.37;;
85510;SDS011;75921;51.616;11.880;2024-02-16T04:24:42;7.97;;;5.80;;
85510;SDS011;75921;51.616;11.880;2024-02-16T04:27:07;7.93;;;5.40;;
85510;SDS011;75921;51.616;11.880;2024-02-16T04:29:33;10.83;;;5.53;;
85510;SDS011;75921;51.616;11.880;2024-02-16T04:31:58;10.93;;;5.93;;
85510;SDS011;75921;51.616;11.880;2024-02-16T04:34:23;8.87;;;6.00;;
85510;SDS011;75921;51.616;11.880;2024-02-16T04:36:48;10.07;;;5.90;;
85510;SDS011;75921;51.616;11.880;2024-02-16T04:39:14;8.37;;;5.73;;
85510;SDS011;75921;51.616;11.880;2024-02-16T04:41:39;8.38;;;4.82;;
85510;SDS011;75921;51.616;11.880;2024-02-16T04:44:05;9.40;;;5.63;;
85510;SDS011;75921;51.616;11.880;2024-02-16T04:46:30;8.00;;;5.43;;
85510;SDS011;75921;51.616;11.880;2024-02-16T04:48:55;8.27;;;6.03;;
85510;SDS011;75921;51.616;11.880;2024-02-16T04:51:21;9.87;;;5.57;;
85510;SDS011;75921;51.616;11.880;2024-02-16T04:53:46;9.90;;;5.20;;
85510;SDS011;75921;51.616;11.880;2024-02-16T04:56:11;11.40;;;6.27;;
85510;SDS011;75921;51.616;11.880;2024-02-16T04:58:39;10.03;;;6.07;;
85510;SDS011;75921;51.616;11.880;2024-02-16T05:01:06;8.75;;;5.05;;
85510;SDS011;75921;51.616;11.880;2024-02-16T05:03:31;7.78;;;5.05;;
85510;SDS011;75921;51.616;11.880;2024-02-16T05:05:57;6.80;;;5.03;;
85510;SDS011;75921;51.616;11.880;2024-02-16T05:08:22;9.63;;;5.30;;
85510;SDS011;75921;51.616;11.880;2024-02-16T05:10:48;6.38;;;4.40;;
85510;SDS011;75921;51.616;11.880;2024-02-16T05:13:13;8.37;;;5.13;;
85510;SDS011;75921;51.616;11.880;2024-02-16T05:15:39;8.07;;;5.07;;
85510;SDS011;75921;51.616;11.880;2024-02-16T05:18:04;9.17;;;5.83;;
85510;SDS011;75921;51.616;11.880;2024-02-16T05:20:29;5.53;;;4.43;;
85510;SDS011;75921;51.616;11.880;2024-02-16T05:22:55;6.23;;;4.17;;
85510;SDS011;75921;51.616;11.880;2024-02-16T05:25:21;6.60;;;4.30;;
85510;SDS011;75921;51.616;11.880;2024-02-16T05:27:47;6.78;;;4.88;;
85510;SDS011;75921;51.616;11.880;2024-02-16T05:30:15;4.97;;;3.40;;
85510;SDS011;75921;51.616;11.880;2024-02-16T05:32:40;6.77;;;3.83;;
85510;SDS011;75921;51.616;11.880;2024-02-16T05:35:06;7.25;;;4.53;;
85510;SDS011;75921;51.616;11.880;2024-02-16T05:37:43;6.05;;;3.90;;
85510;SDS011;75921;51.616;11.880;2024-02-16T05:40:10;6.70;;;4.57;;
85510;SDS011;75921;51.616;11.880;2024-02-16T05:42:55;5.82;;;4.35;;
85510;SDS011;75921;51.616;11.880;2024-02-16T05:45:24;6.63;;;4.82;;
85510;SDS011;75921;51.616;11.880;2024-02-16T05:47:50;7.22;;;4.53;;
85510;SDS011;75921;51.616;11.880;2024-02-16T05:50:16;8.73;;;5.78;;
85510;SDS011;75921;51.616;11.880;2024-02-16T05:52:42;7.45;;;4.32;;
85510;SDS011;75921;51.616;11.880;2024-02-16T05:55:09;5.57;;;3.97;;
85510;SDS011;75921;51.616;11.880;2024-02-16T05:57:35;7.32;;;4.55;;
85510;SDS011;75921;51.616;11.880;2024-02-16T06:00:04;8.85;;;4.85;;
85510;SDS011;75921;51.616;11.880;2024-02-16T06:02:31;9.23;;;4.93;;
85510;SDS011;75921;51.616;11.880;2024-02-16T06:04:57;5.68;;;4.22;;
85510;SDS011;75921;51.616;11.880;2024-02-16T06:07:23;6.63;;;3.63;;
85510;SDS011;75921;51.616;11.880;2024-02-16T06:09:48;7.18;;;3.97;;
85510;SDS011;75921;51.616;11.880;2024-02-16T06:12:13;5.22;;;3.03;;
85510;SDS011;75921;51.616;11.880;2024-02-16T06:14:40;6.50;;;4.03;;
85510;SDS011;75921;51.616;11.880;2024-02-16T06:17:06;5.80;;;3.27;;
85510;SDS011;75921;51.616;11.880;2024-02-16T06:19:33;5.25;;;3.65;;
85510;SDS011;75921;51.616;11.880;2024-02-16T06:21:58;4.60;;;3.30;;
85510;SDS011;75921;51.616;11.880;2024-02-16T06:24:24;5.65;;;4.10;;
85510;SDS011;75921;51.616;11.880;2024-02-16T06:26:49;5.43;;;3.97;;
85510;SDS011;75921;51.616;11.880;2024-02-16T06:29:16;9.70;;;4.15;;
85510;SDS011;75921;51.616;11.880;2024-02-16T06:31:41;4.47;;;3.40;;
85510;SDS011;75921;51.616;11.880;2024-02-16T06:34:06;4.60;;;3.50;;
85510;SDS011;75921;51.616;11.880;2024-02-16T06:36:33;6.10;;;4.25;;
85510;SDS011;75921;51.616;11.880;2024-02-16T06:38:58;6.18;;;3.42;;
85510;SDS011;75921;51.616;11.880;2024-02-16T06:41:23;6.80;;;3.55;;
85510;SDS011;75921;51.616;11.880;2024-02-16T06:43:49;5.17;;;4.07;;
85510;SDS011;75921;51.616;11.880;2024-02-16T06:46:14;5.20;;;3.83;;
85510;SDS011;75921;51.616;11.880;2024-02-16T06:48:39;5.40;;;4.13;;
85510;SDS011;75921;51.616;11.880;2024-02-16T06:51:04;4.50;;;3.23;;
85510;SDS011;75921;51.616;11.880;2024-02-16T06:53:30;8.13;;;3.77;;
85510;SDS011;75921;51.616;11.880;2024-02-16T06:55:55;4.17;;;3.03;;
85510;SDS011;75921;51.616;11.880;2024-02-16T06:58:20;4.70;;;3.08;;
85510;SDS011;75921;51.616;11.880;2024-02-16T07:00:46;6.90;;;3.73;;
85510;SDS011;75921;51.616;11.880;2024-02-16T07:03:11;6.05;;;4.20;;
85510;SDS011;75921;51.616;11.880;2024-02-16T07:05:37;6.00;;;3.85;;
85510;SDS011;75921;51.616;11.880;2024-02-16T07:08:03;6.43;;;3.28;;
85510;SDS011;75921;51.616;11.880;2024-02-16T07:10:31;3.55;;;2.70;;
85510;SDS011;75921;51.616;11.880;2024-02-16T07:12:56;5.20;;;3.57;;
85510;SDS011;75921;51.616;11.880;2024-02-16T07:15:21;4.57;;;3.10;;
85510;SDS011;75921;51.616;11.880;2024-02-16T07:17:47;5.57;;;3.63;;
85510;SDS011;75921;51.616;11.880;2024-02-16T07:20:12;3.90;;;2.83;;
85510;SDS011;75921;51.616;11.880;2024-02-16T07:22:40;5.18;;;3.47;;
85510;SDS011;75921;51.616;11.880;2024-02-16T07:25:06;7.40;;;3.17;;
85510;SDS011;75921;51.616;11.880;2024-02-16T07:27:33;4.97;;;3.13;;
85510;SDS011;75921;51.616;11.880;2024-02-16T07:29:58;3.70;;;2.87;;
85510;SDS011;75921;51.616;11.880;2024-02-16T07:32:26;4.47;;;2.97;;
85510;SDS011;75921;51.616;11.880;2024-02-16T07:34:51;4.40;;;2.97;;
85510;SDS011;75921;51.616;11.880;2024-02-16T07:37:16;3.75;;;2.85;;
85510;SDS011;75921;51.616;11.880;2024-02-16T07:39:41;2.87;;;2.33;;
85510;SDS011;75921;51.616;11.880;2024-02-16T07:42:07;3.97;;;2.30;;
85510;SDS011;75921;51.616;11.880;2024-02-16T07:44:36;5.55;;;2.47;;
85510;SDS011;75921;51.616;11.880;2024-02-16T07:47:02;3.17;;;2.53;;
85510;SDS011;75921;51.616;11.880;2024-02-16T07:49:28;3.75;;;3.05;;
85510;SDS011;75921;51.616;11.880;2024-02-16T07:51:53;3.17;;;2.57;;
85510;SDS011;75921;51.616;11.880;2024-02-16T07:54:18;4.83;;;2.80;;
85510;SDS011;75921;51.616;11.880;2024-02-16T07:56:43;5.00;;;2.80;;
85510;SDS011;75921;51.616;11.880;2024-02-16T07:59:09;5.40;;;3.13;;
85510;SDS011;75921;51.616;11.880;2024-02-16T08:01:34;4.00;;;2.47;;
85510;SDS011;75921;51.616;11.880;2024-02-16T08:03:59;5.30;;;3.47;;
85510;SDS011;75921;51.616;11.880;2024-02-16T08:06:26;4.43;;;2.95;;
85510;SDS011;75921;51.616;11.880;2024-02-16T08:08:51;4.65;;;3.10;;
85510;SDS011;75921;51.616;11.880;2024-02-16T08:11:17;3.95;;;2.80;;
85510;SDS011;75921;51.616;11.880;2024-02-16T08:13:42;5.32;;;3.17;;
85510;SDS011;75921;51.616;11.880;2024-02-16T08:16:08;4.60;;;2.80;;
85510;SDS011;75921;51.616;11.880;2024-02-16T08:18:33;4.82;;;2.80;;
85510;SDS011;75921;51.616;11.880;2024-02-16T08:20:59;4.20;;;2.50;;
85510;SDS011;75921;51.616;11.880;2024-02-16T08:23:25;6.50;;;3.40;;
85510;SDS011;75921;51.616;11.880;2024-02-16T08:25:50;3.22;;;2.45;;
85510;SDS011;75921;51.616;11.880;2024-02-16T08:28:15;3.17;;;2.30;;
85510;SDS011;75921;51.616;11.880;2024-02-16T08:30:40;2.53;;;2.17;;
85510;SDS011;75921;51.616;11.880;2024-02-16T08:33:09;5.53;;;2.72;;
85510;SDS011;75921;51.616;11.880;2024-02-16T08:35:34;4.28;;;2.55;;
85510;SDS011;75921;51.616;11.880;2024-02-16T08:38:00;2.00;;;1.77;;
85510;SDS011;75921;51.616;11.880;2024-02-16T08:40:25;6.77;;;2.70;;
85510;SDS011;75921;51.616;11.880;2024-02-16T08:42:50;2.67;;;2.33;;
85510;SDS011;75921;51.616;11.880;2024-02-16T08:45:15;3.80;;;2.73;;
85510;SDS011;75921;51.616;11.880;2024-02-16T08:47:42;4.00;;;2.42;;
85510;SDS011;75921;51.616;11.880;2024-02-16T08:50:09;4.55;;;2.53;;
85510;SDS011;75921;51.616;11.880;2024-02-16T08:52:34;3.67;;;2.72;;
85510;SDS011;75921;51.616;11.880;2024-02-16T08:55:00;6.73;;;2.90;;
85510;SDS011;75921;51.616;11.880;2024-02-16T08:57:25;3.97;;;2.67;;
85510;SDS011;75921;51.616;11.880;2024-02-16T08:59:50;4.90;;;2.13;;
85510;SDS011;75921;51.616;11.880;2024-02-16T09:02:15;2.93;;;2.17;;
85510;SDS011;75921;51.616;11.880;2024-02-16T09:04:41;3.10;;;2.00;;
85510;SDS011;75921;51.616;11.880;2024-02-16T09:07:06;2.97;;;2.23;;
85510;SDS011;75921;51.616;11.880;2024-02-16T09:09:31;4.53;;;2.70;;
85510;SDS011;75921;51.616;11.880;2024-02-16T09:11:56;3.43;;;2.70;;
85510;SDS011;75921;51.616;11.880;2024-02-16T09:14:22;5.97;;;2.88;;
85510;SDS011;75921;51.616;11.880;2024-02-16T09:16:48;6.78;;;3.13;;
85510;SDS011;75921;51.616;11.880;2024-02-16T09:19:16;4.55;;;2.45;;
85510;SDS011;75921;51.616;11.880;2024-02-16T09:21:41;5.33;;;2.70;;
85510;SDS011;75921;51.616;11.880;2024-02-16T09:24:06;4.80;;;2.60;;
85510;SDS011;75921;51.616;11.880;2024-02-16T09:26:35;3.58;;;2.63;;
85510;SDS011;75921;51.616;11.880;2024-02-16T09:29:01;4.47;;;2.85;;
85510;SDS011;75921;51.616;11.880;2024-02-16T09:31:26;3.87;;;2.80;;
85510;SDS011;75921;51.616;11.880;2024-02-16T09:33:51;4.70;;;2.77;;
85510;SDS011;75921;51.616;11.880;2024-02-16T09:36:18;4.47;;;3.13;;
85510;SDS011;75921;51.616;11.880;2024-02-16T09:38:43;5.10;;;3.20;;
85510;SDS011;75921;51.616;11.880;2024-02-16T09:41:09;4.25;;;2.78;;
85510;SDS011;75921;51.616;11.880;2024-02-16T09:43:34;4.37;;;3.13;;
85510;SDS011;75921;51.616;11.880;2024-02-16T09:45:59;5.72;;;3.47;;
85510;SDS011;75921;51.616;11.880;2024-02-16T09:48:25;5.97;;;3.03;;
85510;SDS011;75921;51.616;11.880;2024-02-16T09:50:55;5.75;;;3.25;;
85510;SDS011;75921;51.616;11.880;2024-02-16T09:55:49;5.40;;;2.95;;
85510;SDS011;75921;51.616;11.880;2024-02-16T09:58:15;3.95;;;3.00;;
85510;SDS011;75921;51.616;11.880;2024-02-16T10:00:52;4.93;;;3.47;;
85510;SDS011;75921;51.616;11.880;2024-02-16T10:03:23;3.08;;;2.55;;
85510;SDS011;75921;51.616;11.880;2024-02-16T10:06:03;6.18;;;2.60;;
85510;SDS011;75921;51.616;11.880;2024-02-16T10:08:29;5.00;;;2.53;;
85510;SDS011;75921;51.616;11.880;2024-02-16T10:11:02;4.03;;;3.23;;
85510;SDS011;75921;51.616;11.880;2024-02-16T10:13:30;4.35;;;2.55;;
85510;SDS011;75921;51.616;11.880;2024-02-16T10:16:09;6.93;;;3.35;;
85510;SDS011;75921;51.616;11.880;2024-02-16T10:18:36;3.78;;;2.88;;
85510;SDS011;75921;51.616;11.880;2024-02-16T10:21:03;13.13;;;4.03;;
85510;SDS011;75921;51.616;11.880;2024-02-16T10:23:29;5.22;;;3.38;;
85510;SDS011;75921;51.616;11.880;2024-02-16T10:25:54;5.20;;;3.95;;
85510;SDS011;75921;51.616;11.880;2024-02-16T10:28:19;5.43;;;3.38;;
85510;SDS011;75921;51.616;11.880;2024-02-16T10:30:46;8.75;;;4.60;;
85510;SDS011;75921;51.616;11.880;2024-02-16T10:33:13;5.72;;;3.53;;
85510;SDS011;75921;51.616;11.880;2024-02-16T10:35:38;7.18;;;3.72;;
85510;SDS011;75921;51.616;11.880;2024-02-16T10:38:07;7.30;;;3.50;;
85510;SDS011;75921;51.616;11.880;2024-02-16T10:43:03;4.28;;;3.55;;
85510;SDS011;75921;51.616;11.880;2024-02-16T10:45:32;5.43;;;3.92;;
85510;SDS011;75921;51.616;11.880;2024-02-16T10:47:58;5.25;;;3.13;;
85510;SDS011;75921;51.616;11.880;2024-02-16T10:50:24;6.83;;;3.90;;
85510;SDS011;75921;51.616;11.880;2024-02-16T10:52:49;6.43;;;3.65;;
85510;SDS011;75921;51.616;11.880;2024-02-16T10:55:15;5.32;;;3.75;;
85510;SDS011;75921;51.616;11.880;2024-02-16T10:57:41;4.63;;;3.63;;
85510;SDS011;75921;51.616;11.880;2024-02-16T11:00:10;5.45;;;3.00;;
85510;SDS011;75921;51.616;11.880;2024-02-16T11:02:52;6.18;;;3.45;;
85510;SDS011;75921;51.616;11.880;2024-02-16T11:05:39;5.65;;;3.08;;
85510;SDS011;75921;51.616;11.880;2024-02-16T11:08:11;5.43;;;2.90;;
85510;SDS011;75921;51.616;11.880;2024-02-16T11:10:38;4.95;;;3.45;;
85510;SDS011;75921;51.616;11.880;2024-02-16T11:13:04;4.90;;;3.17;;
85510;SDS011;75921;51.616;11.880;2024-02-16T11:15:33;5.38;;;3.05;;
85510;SDS011;75921;51.616;11.880;2024-02-16T11:18:03;4.80;;;3.05;;
85510;SDS011;75921;51.616;11.880;2024-02-16T11:20:29;5.68;;;3.80;;
85510;SDS011;75921;51.616;11.880;2024-02-16T11:23:10;5.85;;;3.10;;
85510;SDS011;75921;51.616;11.880;2024-02-16T11:25:38;9.02;;;3.70;;
85510;SDS011;75921;51.616;11.880;2024-02-16T11:28:04;4.15;;;3.13;;
85510;SDS011;75921;51.616;11.880;2024-02-16T11:30:33;4.50;;;3.17;;
85510;SDS011;75921;51.616;11.880;2024-02-16T11:33:00;4.85;;;3.22;;
85510;SDS011;75921;51.616;11.880;2024-02-16T11:35:26;4.22;;;3.05;;
85510;SDS011;75921;51.616;11.880;2024-02-16T11:37:51;5.50;;;3.97;;
85510;SDS011;75921;51.616;11.880;2024-02-16T11:40:16;6.80;;;4.43;;
85510;SDS011;75921;51.616;11.880;2024-02-16T11:42:42;5.70;;;3.45;;
85510;SDS011;75921;51.616;11.880;2024-02-16T11:45:10;6.03;;;3.47;;
85510;SDS011;75921;51.616;11.880;2024-02-16T11:47:37;5.38;;;3.88;;
85510;SDS011;75921;51.616;11.880;2024-02-16T11:50:03;7.80;;;4.20;;
85510;SDS011;75921;51.616;11.880;2024-02-16T11:52:28;5.53;;;3.40;;
85510;SDS011;75921;51.616;11.880;2024-02-16T11:54:54;5.10;;;3.53;;
85510;SDS011;75921;51.616;11.880;2024-02-16T11:57:19;6.70;;;4.22;;
85510;SDS011;75921;51.616;11.880;2024-02-16T11:59:45;8.93;;;4.30;;
85510;SDS011;75921;51.616;11.880;2024-02-16T12:02:16;8.25;;;4.72;;
85510;SDS011;75921;51.616;11.880;2024-02-16T12:04:43;5.85;;;4.15;;
85510;SDS011;75921;51.616;11.880;2024-02-16T12:07:12;6.72;;;4.25;;
85510;SDS011;75921;51.616;11.880;2024-02-16T12:09:37;6.53;;;4.78;;
85510;SDS011;75921;51.616;11.880;2024-02-16T12:12:04;6.70;;;4.83;;
85510;SDS011;75921;51.616;11.880;2024-02-16T12:14:30;7.70;;;4.90;;
85510;SDS011;75921;51.616;11.880;2024-02-16T12:16:56;7.47;;;4.68;;
85510;SDS011;75921;51.616;11.880;2024-02-16T12:19:23;7.18;;;4.20;;
85510;SDS011;75921;51.616;11.880;2024-02-16T12:21:52;6.32;;;3.72;;
85510;SDS011;75921;51.616;11.880;2024-02-16T12:24:18;7.80;;;3.97;;
85510;SDS011;75921;51.616;11.880;2024-02-16T12:26:43;5.72;;;3.72;;
85510;SDS011;75921;51.616;11.880;2024-02-16T12:29:09;5.60;;;3.95;;
85510;SDS011;75921;51.616;11.880;2024-02-16T12:31:37;6.68;;;3.35;;
85510;SDS011;75921;51.616;11.880;2024-02-16T12:34:03;4.22;;;3.30;;
85510;SDS011;75921;51.616;11.880;2024-02-16T12:36:30;5.13;;;3.17;;
85510;SDS011;75921;51.616;11.880;2024-02-16T12:38:55;5.38;;;2.85;;
85510;SDS011;75921;51.616;11.880;2024-02-16T12:41:21;4.50;;;2.80;;
85510;SDS011;75921;51.616;11.880;2024-02-16T12:43:46;5.60;;;2.97;;
85510;SDS011;75921;51.616;11.880;2024-02-16T12:46:11;7.67;;;2.93;;
85510;SDS011;75921;51.616;11.880;2024-02-16T12:48:37;6.10;;;2.70;;
85510;SDS011;75921;51.616;11.880;2024-02-16T12:51:02;6.53;;;2.88;;
85510;SDS011;75921;51.616;11.880;2024-02-16T12:53:28;2.88;;;2.35;;
85510;SDS011;75921;51.616;11.880;2024-02-16T12:56:00;6.78;;;3.40;;
85510;SDS011;75921;51.616;11.880;2024-02-16T12:58:26;4.93;;;3.10;;
85510;SDS011;75921;51.616;11.880;2024-02-16T13:00:52;4.43;;;3.00;;
85510;SDS011;75921;51.616;11.880;2024-02-16T13:03:17;6.65;;;3.05;;
85510;SDS011;75921;51.616;11.880;2024-02-16T13:05:43;4.90;;;2.70;;
85510;SDS011;75921;51.616;11.880;2024-02-16T13:08:08;6.32;;;2.97;;
85510;SDS011;75921;51.616;11.880;2024-02-16T13:10:34;4.30;;;2.60;;
85510;SDS011;75921;51.616;11.880;2024-02-16T13:12:59;3.77;;;2.80;;
85510;SDS011;75921;51.616;11.880;2024-02-16T13:15:24;8.73;;;3.10;;
85510;SDS011;75921;51.616;11.880;2024-02-16T13:17:49;5.80;;;2.67;;
85510;SDS011;75921;51.616;11.880;2024-02-16T13:20:15;6.60;;;2.87;;
85510;SDS011;75921;51.616;11.880;2024-02-16T13:22:40;3.70;;;2.77;;
85510;SDS011;75921;51.616;11.880;2024-02-16T13:25:05;4.53;;;2.57;;
85510;SDS011;75921;51.616;11.880;2024-02-16T13:27:32;3.97;;;2.80;;
85510;SDS011;75921;51.616;11.880;2024-02-16T13:29:58;6.07;;;2.97;;
85510;SDS011;75921;51.616;11.880;2024-02-16T13:32:23;3.20;;;2.42;;
85510;SDS011;75921;51.616;11.880;2024-02-16T13:34:49;4.43;;;2.75;;
85510;SDS011;75921;51.616;11.880;2024-02-16T13:37:14;7.97;;;2.90;;
85510;SDS011;75921;51.616;11.880;2024-02-16T13:39:39;4.37;;;2.80;;
85510;SDS011;75921;51.616;11.880;2024-02-16T13:42:05;5.37;;;2.83;;
85510;SDS011;75921;51.616;11.880;2024-02-16T13:44:31;5.35;;;2.90;;
85510;SDS011;75921;51.616;11.880;2024-02-16T13:46:56;3.50;;;2.50;;
85510;SDS011;75921;51.616;11.880;2024-02-16T13:49:22;5.38;;;2.38;;
85510;SDS011;75921;51.616;11.880;2024-02-16T13:51:47;5.75;;;2.72;;
85510;SDS011;75921;51.616;11.880;2024-02-16T13:54:13;4.60;;;2.60;;
85510;SDS011;75921;51.616;11.880;2024-02-16T13:56:38;3.60;;;2.40;;
85510;SDS011;75921;51.616;11.880;2024-02-16T13:59:04;5.95;;;2.67;;
85510;SDS011;75921;51.616;11.880;2024-02-16T14:01:31;3.10;;;2.20;;
85510;SDS011;75921;51.616;11.880;2024-02-16T14:03:58;5.15;;;3.05;;
85510;SDS011;75921;51.616;11.880;2024-02-16T14:06:23;4.37;;;2.63;;
85510;SDS011;75921;51.616;11.880;2024-02-16T14:08:48;5.13;;;2.80;;
85510;SDS011;75921;51.616;11.880;2024-02-16T14:11:16;4.97;;;2.70;;
85510;SDS011;75921;51.616;11.880;2024-02-16T14:13:41;5.43;;;2.90;;
85510;SDS011;75921;51.616;11.880;2024-02-16T14:16:06;5.40;;;2.88;;
85510;SDS011;75921;51.616;11.880;2024-02-16T14:18:33;5.63;;;3.00;;
85510;SDS011;75921;51.616;11.880;2024-02-16T14:20:58;5.05;;;2.95;;
85510;SDS011;75921;51.616;11.880;2024-02-16T14:23:23;6.32;;;3.83;;
85510;SDS011;75921;51.616;11.880;2024-02-16T14:25:49;9.07;;;3.28;;
85510;SDS011;75921;51.616;11.880;2024-02-16T14:28:14;5.88;;;3.30;;
85510;SDS011;75921;51.616;11.880;2024-02-16T14:30:39;6.03;;;3.07;;